createdAt,value
2022-10-10T00:01:32.431Z,101457.97
2022-10-10T00:04:00.335Z,101453.63
2022-10-10T00:06:33.041Z,101453.41
2022-10-10T00:09:03.713Z,101448.50
2022-10-10T00:11:33.096Z,101449.78
2022-10-10T00:14:01.973Z,101449.78
2022-10-10T00:16:31.295Z,101437.19
2022-10-10T00:19:01.124Z,101437.19
2022-10-10T00:21:27.900Z,101434.97
2022-10-10T00:23:54.717Z,101434.53
2022-10-10T00:26:22.053Z,101427.97
2022-10-10T00:28:48.994Z,101426.03
2022-10-10T00:31:23.123Z,101430.78
2022-10-10T00:33:52.654Z,101421.53
2022-10-10T00:36:21.313Z,101428.53
2022-10-10T00:38:53.209Z,101425.13
2022-10-10T00:41:20.116Z,101414.66
2022-10-10T00:44:12.728Z,101420.22
2022-10-10T00:46:42.770Z,101410.34
2022-10-10T00:49:19.813Z,101404.44
2022-10-10T00:51:51.764Z,101401.28
2022-10-10T00:54:23.533Z,101397.44
2022-10-10T00:56:54.782Z,101395.56
2022-10-10T00:59:22.498Z,101393.69
2022-10-10T01:01:49.360Z,101391.00
2022-10-10T01:04:43.107Z,101393.56
2022-10-10T01:07:25.497Z,101391.31
2022-10-10T01:10:00.567Z,101391.56
2022-10-10T01:12:45.422Z,101390.56
2022-10-10T01:15:27.432Z,101388.03
2022-10-10T01:18:11.558Z,101379.09
2022-10-10T01:20:57.656Z,101384.16
2022-10-10T01:24:02.229Z,101375.19
2022-10-10T01:26:49.217Z,101374.44
2022-10-10T01:29:54.122Z,101370.19
2022-10-10T01:33:01.945Z,101365.22
2022-10-10T01:35:57.998Z,101368.97
2022-10-10T01:38:50.694Z,101365.28
2022-10-10T01:41:34.288Z,101360.75
2022-10-10T01:44:01.097Z,101352.34
2022-10-10T01:46:33.300Z,101347.66
2022-10-10T01:49:03.040Z,101346.69
2022-10-10T01:51:53.424Z,101348.50
2022-10-10T01:54:35.368Z,101342.56
2022-10-10T01:57:22.154Z,101342.38
2022-10-10T02:00:11.410Z,101331.66
2022-10-10T02:02:50.481Z,101339.53
2022-10-10T02:05:51.056Z,101330.44
2022-10-10T02:08:35.694Z,101324.91
2022-10-10T02:11:09.820Z,101325.59
2022-10-10T02:14:00.420Z,101317.63
2022-10-10T02:16:34.051Z,101322.91
2022-10-10T02:19:11.144Z,101316.78
2022-10-10T02:21:42.591Z,101313.09
2022-10-10T02:24:14.252Z,101307.97
2022-10-10T02:26:53.722Z,101304.00
2022-10-10T02:29:28.385Z,101305.69
2022-10-10T02:32:12.020Z,101303.53
2022-10-10T02:34:50.987Z,101309.66
2022-10-10T02:37:22.049Z,101313.94
2022-10-10T02:39:58.487Z,101309.06
2022-10-10T02:42:27.911Z,101304.81
2022-10-10T02:44:56.395Z,101298.22
2022-10-10T02:47:23.494Z,101300.91
2022-10-10T02:49:51.214Z,101293.78
2022-10-10T02:52:18.456Z,101293.06
2022-10-10T02:54:48.378Z,101289.97
2022-10-10T02:57:18.481Z,101296.56
2022-10-10T02:59:45.313Z,101294.66
2022-10-10T03:02:12.153Z,101291.97
2022-10-10T03:04:39.223Z,101278.84
2022-10-10T03:07:09.051Z,101279.13
2022-10-10T03:09:38.738Z,101276.59
2022-10-10T03:12:05.876Z,101272.06
2022-10-10T03:14:37.935Z,101272.22
2022-10-10T03:17:07.053Z,101270.66
2022-10-10T03:19:36.030Z,101262.28
2022-10-10T03:22:04.951Z,101262.69
2022-10-10T03:24:32.168Z,101254.16
2022-10-10T03:27:01.549Z,101255.84
2022-10-10T03:29:30.891Z,101255.81
2022-10-10T03:31:59.970Z,101255.44
2022-10-10T03:34:27.153Z,101252.75
2022-10-10T03:36:54.202Z,101253.84
2022-10-10T03:39:21.027Z,101248.03
2022-10-10T03:41:50.277Z,101244.16
2022-10-10T03:44:17.107Z,101245.16
2022-10-10T03:46:45.211Z,101243.22
2022-10-10T03:49:11.981Z,101239.78
2022-10-10T03:51:41.654Z,101238.19
2022-10-10T03:54:08.503Z,101244.34
2022-10-10T03:56:35.295Z,101241.34
2022-10-10T03:59:07.339Z,101233.34
2022-10-10T04:01:37.403Z,101231.22
2022-10-10T04:04:05.115Z,101222.13
2022-10-10T04:06:34.601Z,101223.38
2022-10-10T04:09:04.382Z,101220.28
2022-10-10T04:11:35.162Z,101219.44
2022-10-10T04:14:05.021Z,101215.50
2022-10-10T04:16:31.832Z,101218.88
2022-10-10T04:19:01.144Z,101205.22
2022-10-10T04:21:28.006Z,101205.53
2022-10-10T04:23:59.728Z,101203.81
2022-10-10T04:26:29.548Z,101196.97
2022-10-10T04:28:56.320Z,101196.97
2022-10-10T04:31:23.939Z,101192.13
2022-10-10T04:33:53.557Z,101192.44
2022-10-10T04:36:22.842Z,101183.94
2022-10-10T04:38:52.731Z,101194.19
2022-10-10T04:41:19.644Z,101196.75
2022-10-10T04:43:46.936Z,101192.75
2022-10-10T04:46:16.541Z,101188.50
2022-10-10T04:48:46.120Z,101183.38
2022-10-10T04:51:18.019Z,101180.81
2022-10-10T04:53:50.563Z,101177.97
2022-10-10T04:56:17.529Z,101176.28
2022-10-10T04:58:46.999Z,101177.56
2022-10-10T05:01:13.984Z,101168.44
2022-10-10T05:03:43.479Z,101165.78
2022-10-10T05:06:17.919Z,101168.47
2022-10-10T05:08:47.757Z,101166.03
2022-10-10T05:11:14.637Z,101157.81
2022-10-10T05:13:41.493Z,101156.22
2022-10-10T05:16:11.058Z,101162.22
2022-10-10T05:18:44.667Z,101160.66
2022-10-10T05:21:11.952Z,101155.81
2022-10-10T05:23:41.854Z,101159.22
2022-10-10T05:26:12.270Z,101154.78
2022-10-10T05:28:39.268Z,101147.28
2022-10-10T05:31:06.295Z,101143.28
2022-10-10T05:33:36.640Z,101144.72
2022-10-10T05:36:14.480Z,101141.88
2022-10-10T05:38:42.165Z,101142.13
2022-10-10T05:41:12.628Z,101135.88
2022-10-10T05:43:39.705Z,101131.91
2022-10-10T05:46:06.767Z,101123.81
2022-10-10T05:48:38.484Z,101125.94
2022-10-10T05:51:07.639Z,101113.41
2022-10-10T05:53:34.508Z,101120.09
2022-10-10T05:56:02.232Z,101112.59
2022-10-10T05:58:33.724Z,101118.78
2022-10-10T06:01:08.064Z,101105.25
2022-10-10T06:03:39.752Z,101112.47
2022-10-10T06:06:09.588Z,101109.25
2022-10-10T06:08:36.477Z,101117.50
2022-10-10T06:11:11.256Z,101121.56
2022-10-10T06:13:41.218Z,101119.78
2022-10-10T06:16:08.042Z,101126.50
2022-10-10T06:18:35.149Z,101121.09
2022-10-10T06:21:05.231Z,101114.72
2022-10-10T06:23:33.125Z,101117.47
2022-10-10T06:26:02.029Z,101108.41
2022-10-10T06:28:31.248Z,101110.22
2022-10-10T06:31:03.838Z,101104.13
2022-10-10T06:33:31.243Z,101104.66
2022-10-10T06:36:00.496Z,101118.50
2022-10-10T06:38:27.662Z,101110.50
2022-10-10T06:40:58.510Z,101102.66
2022-10-10T06:43:29.863Z,101105.00
2022-10-10T06:45:57.566Z,101101.13
2022-10-10T06:48:24.541Z,101110.28
2022-10-10T06:51:07.739Z,101108.09
2022-10-10T06:53:44.103Z,101115.00
2022-10-10T06:56:24.977Z,101117.84
2022-10-10T06:58:54.671Z,101110.75
2022-10-10T07:01:24.155Z,101111.38
2022-10-10T07:03:51.151Z,101113.63
2022-10-10T07:06:18.454Z,101109.66
2022-10-10T07:08:47.818Z,101109.31
2022-10-10T07:11:18.075Z,101106.34
2022-10-10T07:13:44.887Z,101100.84
2022-10-10T07:16:14.009Z,101101.47
2022-10-10T07:18:43.105Z,101111.06
2022-10-10T07:21:10.501Z,101115.94
2022-10-10T07:23:37.632Z,101114.81
2022-10-10T07:26:08.883Z,101115.03
2022-10-10T07:28:35.845Z,101111.94
2022-10-10T07:31:12.020Z,101104.50
2022-10-10T07:33:47.405Z,101111.41
2022-10-10T07:36:19.632Z,101106.28
2022-10-10T07:38:53.046Z,101103.03
2022-10-10T07:41:21.072Z,101104.53
2022-10-10T07:43:53.573Z,101107.44
2022-10-10T07:46:22.948Z,101103.34
2022-10-10T07:48:52.437Z,101101.22
2022-10-10T07:51:19.260Z,101097.56
2022-10-10T07:53:46.167Z,101091.53
2022-10-10T07:56:13.049Z,101096.44
2022-10-10T07:58:40.134Z,101098.19
2022-10-10T08:01:12.247Z,101085.97
2022-10-10T08:03:40.173Z,101083.91
2022-10-10T08:06:11.760Z,101086.25
2022-10-10T08:08:50.313Z,101082.69
2022-10-10T08:11:21.720Z,101084.75
2022-10-10T08:13:49.686Z,101084.84
2022-10-10T08:16:17.006Z,101086.13
2022-10-10T08:18:44.050Z,101084.34
2022-10-10T08:21:13.203Z,101087.22
2022-10-10T08:23:40.429Z,101079.34
2022-10-10T08:26:10.456Z,101084.16
2022-10-10T08:28:41.911Z,101077.03
2022-10-10T08:31:18.286Z,101075.81
2022-10-10T08:33:48.697Z,101071.19
2022-10-10T08:36:19.345Z,101072.06
2022-10-10T08:38:47.276Z,101064.63
2022-10-10T08:41:48.650Z,101071.78
2022-10-10T08:44:24.311Z,101062.81
2022-10-10T08:47:02.984Z,101053.63
2022-10-10T08:49:41.517Z,101046.00
2022-10-10T08:52:35.633Z,101048.09
2022-10-10T08:55:10.751Z,101041.47
2022-10-10T08:58:19.420Z,101038.94
2022-10-10T09:00:56.326Z,101041.78
2022-10-10T09:03:47.679Z,101034.03
2022-10-10T09:06:51.624Z,101031.66
2022-10-10T09:10:00.807Z,101033.84
2022-10-10T09:12:51.088Z,101034.06
2022-10-10T09:15:26.404Z,101044.13
2022-10-10T09:18:15.759Z,101038.63
2022-10-10T09:21:18.968Z,101031.91
2022-10-10T09:24:21.138Z,101023.25
2022-10-10T09:26:58.798Z,101013.50
2022-10-10T09:29:32.260Z,101027.25
2022-10-10T09:32:11.618Z,101021.66
2022-10-10T09:34:49.286Z,101022.69
2022-10-10T09:37:46.232Z,101018.09
2022-10-10T09:40:36.800Z,101023.56
2022-10-10T09:43:19.050Z,101021.16
2022-10-10T09:45:56.249Z,101029.00
2022-10-10T09:48:33.937Z,101024.72
2022-10-10T09:51:05.429Z,101012.19
2022-10-10T09:53:32.302Z,101009.72
2022-10-10T09:56:02.853Z,101013.78
2022-10-10T09:58:45.088Z,101020.41
2022-10-10T10:01:34.404Z,100998.06
2022-10-10T10:04:34.476Z,101000.22
2022-10-10T10:07:32.091Z,100999.97
2022-10-10T10:10:18.840Z,100989.81
2022-10-10T10:12:46.563Z,100994.50
2022-10-10T10:15:23.038Z,100997.78
2022-10-10T10:18:19.325Z,100986.63
2022-10-10T10:20:50.713Z,100989.25
2022-10-10T10:23:23.545Z,100991.22
2022-10-10T10:26:30.009Z,100987.56
2022-10-10T10:28:58.087Z,100993.31
2022-10-10T10:31:53.746Z,100988.28
2022-10-10T10:34:48.324Z,100988.47
2022-10-10T10:38:04.319Z,100989.41
2022-10-10T10:40:41.081Z,100986.72
2022-10-10T10:43:25.683Z,100985.78
2022-10-10T10:46:37.899Z,100984.63
2022-10-10T10:49:16.145Z,100984.66
2022-10-10T10:52:04.877Z,100998.47
2022-10-10T10:55:12.790Z,100988.47
2022-10-10T10:58:57.963Z,100987.75
2022-10-10T11:01:20.329Z,100985.25
2022-10-10T11:05:20.168Z,100978.13
2022-10-10T11:07:20.936Z,100980.72
2022-10-10T11:10:54.600Z,100985.31
2022-10-10T11:13:32.878Z,100983.06
2022-10-10T11:16:36.281Z,100974.84
2022-10-10T11:19:11.945Z,100967.34
2022-10-10T11:21:50.162Z,100976.25
2022-10-10T11:24:43.468Z,100956.72
2022-10-10T11:27:21.033Z,100957.84
2022-10-10T11:30:20.757Z,100957.56
2022-10-10T11:32:55.756Z,100963.38
2022-10-10T11:35:46.389Z,100955.94
2022-10-10T11:38:20.022Z,100953.09
2022-10-10T11:40:54.273Z,100948.19
2022-10-10T11:44:08.386Z,100950.00
2022-10-10T11:47:08.223Z,100939.19
2022-10-10T11:50:12.371Z,100948.81
2022-10-10T11:52:55.855Z,100951.19
2022-10-10T11:55:27.174Z,100954.03
2022-10-10T11:58:06.362Z,100942.94
2022-10-10T12:00:54.288Z,100937.28
2022-10-10T12:03:21.085Z,100925.53
2022-10-10T12:05:58.707Z,100933.38
2022-10-10T12:08:36.093Z,100931.34
2022-10-10T12:11:16.872Z,100927.38
2022-10-10T12:13:49.520Z,100919.66
2022-10-10T12:16:30.415Z,100913.31
2022-10-10T12:19:22.487Z,100918.66
2022-10-10T12:21:55.329Z,100914.91
2022-10-10T12:24:23.977Z,100909.09
2022-10-10T12:26:56.957Z,100917.97
2022-10-10T12:29:50.879Z,100930.44
2022-10-10T12:32:23.035Z,100921.66
2022-10-10T12:34:49.735Z,100922.38
2022-10-10T12:37:29.641Z,100914.53
2022-10-10T12:40:19.832Z,100907.19
2022-10-10T12:42:46.562Z,100906.25
2022-10-10T12:45:31.436Z,100903.16
2022-10-10T12:48:06.343Z,100911.66
2022-10-10T12:50:55.096Z,100907.56
2022-10-10T12:53:25.579Z,100903.75
2022-10-10T12:56:02.070Z,100902.88
2022-10-10T12:58:33.781Z,100908.38
2022-10-10T13:01:06.544Z,100911.47
2022-10-10T13:03:45.474Z,100897.66
2022-10-10T13:06:30.632Z,100899.97
2022-10-10T13:08:59.145Z,100902.81
2022-10-10T13:11:28.478Z,100896.97
2022-10-10T13:13:57.364Z,100900.63
2022-10-10T13:16:34.129Z,100904.72
2022-10-10T13:19:03.743Z,100900.63
2022-10-10T13:21:36.675Z,100907.38
2022-10-10T13:24:14.386Z,100899.47
2022-10-10T13:26:50.953Z,100909.03
2022-10-10T13:29:33.209Z,100902.28
2022-10-10T13:32:23.823Z,100895.63
2022-10-10T13:35:00.600Z,100889.47
2022-10-10T13:37:33.221Z,100912.16
2022-10-10T13:40:01.022Z,100920.13
2022-10-10T13:42:30.434Z,100909.31
2022-10-10T13:45:00.189Z,100912.84
2022-10-10T13:47:52.638Z,100905.81
2022-10-10T13:50:35.384Z,100902.44
2022-10-10T13:53:27.323Z,100907.81
2022-10-10T13:56:31.823Z,100912.47
2022-10-10T13:59:01.560Z,100911.31
2022-10-10T14:01:47.504Z,100926.88
2022-10-10T14:04:26.213Z,100923.53
2022-10-10T14:07:04.852Z,100919.22
2022-10-10T14:09:37.286Z,100927.13
2022-10-10T14:12:08.734Z,100929.13
2022-10-10T14:14:50.018Z,100935.25
2022-10-10T14:17:20.397Z,100942.69
2022-10-10T14:19:48.669Z,100941.44
2022-10-10T14:22:16.057Z,100935.25
2022-10-10T14:24:49.124Z,100939.38
2022-10-10T14:27:24.271Z,100943.16
2022-10-10T14:29:56.766Z,100938.28
2022-10-10T14:32:26.897Z,100940.63
2022-10-10T14:34:53.869Z,100942.13
2022-10-10T14:37:25.618Z,100934.50
2022-10-10T14:39:53.145Z,100929.25
2022-10-10T14:42:21.975Z,100932.38
2022-10-10T14:44:49.320Z,100936.72
2022-10-10T14:47:22.084Z,100933.03
2022-10-10T14:49:49.519Z,100931.13
2022-10-10T14:52:16.365Z,100935.34
2022-10-10T14:54:45.716Z,100936.66
2022-10-10T14:57:14.191Z,100935.88
2022-10-10T14:59:47.903Z,100947.88
2022-10-10T15:02:21.770Z,100938.38
2022-10-10T15:04:51.747Z,100945.34
2022-10-10T15:07:19.495Z,100949.06
2022-10-10T15:12:43.791Z,100937.72
2022-10-10T15:15:12.969Z,100939.03
2022-10-10T15:17:40.950Z,100934.50
2022-10-10T15:20:14.771Z,100941.91
2022-10-10T15:22:43.516Z,100940.84
2022-10-10T15:25:13.217Z,100943.78
2022-10-10T15:27:40.075Z,100944.53
2022-10-10T15:30:10.539Z,100945.25
2022-10-10T15:32:42.315Z,100950.97
2022-10-10T15:35:21.034Z,100948.34
2022-10-10T15:37:48.196Z,100948.75
2022-10-10T15:40:24.526Z,100946.38
2022-10-10T15:42:53.957Z,100943.84
2022-10-10T15:45:44.063Z,100951.16
2022-10-10T15:48:09.802Z,100946.59
2022-10-10T15:50:42.653Z,100951.81
2022-10-10T15:53:09.489Z,100949.25
2022-10-10T15:55:46.358Z,100949.00
2022-10-10T15:58:18.693Z,100952.13
2022-10-10T16:00:48.302Z,100952.00
2022-10-10T16:03:15.166Z,100963.13
2022-10-10T16:05:42.743Z,100954.00
2022-10-10T16:08:13.664Z,100959.06
2022-10-10T16:10:44.790Z,100962.00
2022-10-10T16:13:11.939Z,100963.03
2022-10-10T16:15:41.843Z,100957.38
2022-10-10T16:18:08.679Z,100968.38
2022-10-10T16:20:38.520Z,100977.09
2022-10-10T16:23:09.978Z,100981.53
2022-10-10T16:25:41.353Z,100977.41
2022-10-10T16:28:08.315Z,100979.63
2022-10-10T16:30:36.218Z,100980.69
2022-10-10T16:33:05.554Z,100991.84
2022-10-10T16:35:37.560Z,100992.28
2022-10-10T16:38:04.505Z,100993.09
2022-10-10T16:40:33.390Z,100994.63
2022-10-10T16:43:03.289Z,100998.34
2022-10-10T16:45:34.812Z,100993.50
2022-10-10T16:48:01.745Z,101014.00
2022-10-10T16:50:28.590Z,101016.53
2022-10-10T16:52:55.440Z,101023.22
2022-10-10T16:55:22.232Z,101027.81
2022-10-10T16:57:51.519Z,101028.50
2022-10-10T17:00:18.400Z,101045.91
2022-10-10T17:02:45.274Z,101052.28
2022-10-10T17:05:12.181Z,101054.81
2022-10-10T17:07:39.038Z,101060.50
2022-10-10T17:10:09.157Z,101069.56
2022-10-10T17:12:40.617Z,101079.91
2022-10-10T17:15:08.282Z,101083.84
2022-10-10T17:17:36.304Z,101088.88
2022-10-10T17:20:04.291Z,101089.13
2022-10-10T17:22:31.671Z,101099.03
2022-10-10T17:24:58.607Z,101098.00
2022-10-10T17:27:28.002Z,101111.16
2022-10-10T17:29:57.717Z,101110.25
2022-10-10T17:32:24.590Z,101114.28
2022-10-10T17:34:51.497Z,101131.28
2022-10-10T17:37:18.412Z,101130.59
2022-10-10T17:39:46.445Z,101135.53
2022-10-10T17:42:15.594Z,101136.09
2022-10-10T17:44:49.607Z,101137.84
2022-10-10T17:47:21.390Z,101150.25
2022-10-10T17:49:48.229Z,101150.38
2022-10-10T17:52:21.263Z,101153.13
2022-10-10T17:54:51.057Z,101157.16
2022-10-10T17:57:23.686Z,101157.22
2022-10-10T17:59:53.019Z,101162.38
2022-10-10T18:02:23.161Z,101167.44
2022-10-10T18:04:54.607Z,101163.53
2022-10-10T18:07:21.462Z,101172.53
2022-10-10T18:09:51.732Z,101170.25
2022-10-10T18:12:22.228Z,101173.41
2022-10-10T18:14:52.870Z,101177.78
2022-10-10T18:17:19.789Z,101184.75
2022-10-10T18:19:48.864Z,101200.06
2022-10-10T18:22:18.435Z,101210.31
2022-10-10T18:24:45.677Z,101213.00
2022-10-10T18:27:15.154Z,101226.38
2022-10-10T18:29:44.854Z,101231.47
2022-10-10T18:32:14.392Z,101237.88
2022-10-10T18:34:43.884Z,101245.13
2022-10-10T18:37:15.818Z,101245.06
2022-10-10T18:39:42.686Z,101264.28
2022-10-10T18:42:12.260Z,101264.25
2022-10-10T18:44:39.422Z,101267.81
2022-10-10T18:47:06.336Z,101267.06
2022-10-10T18:49:33.308Z,101272.50
2022-10-10T18:52:03.143Z,101270.63
2022-10-10T18:54:35.516Z,101270.19
2022-10-10T18:57:05.354Z,101280.13
2022-10-10T18:59:32.709Z,101282.69
2022-10-10T19:01:59.861Z,101285.47
2022-10-10T19:04:26.936Z,101292.94
2022-10-10T19:06:57.799Z,101296.25
2022-10-10T19:09:25.272Z,101299.66
2022-10-10T19:11:53.915Z,101295.88
2022-10-10T19:14:21.287Z,101292.00
2022-10-10T19:16:49.002Z,101298.28
2022-10-10T19:19:18.607Z,101304.97
2022-10-10T19:21:48.787Z,101320.09
2022-10-10T19:24:19.514Z,101323.63
2022-10-10T19:26:51.925Z,101323.72
2022-10-10T19:29:19.380Z,101326.78
2022-10-10T19:31:48.832Z,101323.59
2022-10-10T19:34:15.672Z,101331.88
2022-10-10T19:36:42.747Z,101340.09
2022-10-10T19:39:12.173Z,101339.41
2022-10-10T19:41:39.114Z,101347.47
2022-10-10T19:44:06.391Z,101352.03
2022-10-10T19:46:37.396Z,101351.06
2022-10-10T19:49:05.068Z,101355.19
2022-10-10T19:51:31.888Z,101362.31
2022-10-10T19:54:01.431Z,101368.66
2022-10-10T19:56:28.304Z,101366.47
2022-10-10T19:58:58.349Z,101366.19
2022-10-10T20:01:29.910Z,101368.88
2022-10-10T20:04:00.058Z,101378.31
2022-10-10T20:06:27.588Z,101382.56
2022-10-10T20:08:55.288Z,101390.41
2022-10-10T20:11:23.284Z,101392.09
2022-10-10T20:13:55.240Z,101393.31
2022-10-10T20:16:24.117Z,101390.59
2022-10-10T20:18:51.671Z,101404.38
2022-10-10T20:21:29.244Z,101405.41
2022-10-10T20:23:56.698Z,101408.47
2022-10-10T20:26:26.826Z,101418.53
2022-10-10T20:28:56.108Z,101425.34
2022-10-10T20:31:27.276Z,101425.66
2022-10-10T20:33:58.237Z,101430.22
2022-10-10T20:36:28.096Z,101436.72
2022-10-10T20:39:00.542Z,101443.13
2022-10-10T20:41:31.330Z,101435.16
2022-10-10T20:44:03.360Z,101435.84
2022-10-10T20:46:35.340Z,101446.75
2022-10-10T20:49:04.554Z,101453.88
2022-10-10T20:51:31.730Z,101447.75
2022-10-10T20:54:04.454Z,101451.84
2022-10-10T20:56:34.657Z,101453.69
2022-10-10T20:59:01.929Z,101467.81
2022-10-10T21:01:32.737Z,101464.72
2022-10-10T21:04:01.098Z,101468.66
2022-10-10T21:06:36.033Z,101469.66
2022-10-10T21:09:07.862Z,101473.22
2022-10-10T21:11:35.477Z,101472.72
2022-10-10T21:14:02.713Z,101478.84
2022-10-10T21:16:36.385Z,101475.25
2022-10-10T21:19:05.957Z,101480.53
2022-10-10T21:21:35.161Z,101481.09
2022-10-10T21:24:06.211Z,101489.41
2022-10-10T21:26:33.774Z,101489.22
2022-10-10T21:29:03.208Z,101482.94
2022-10-10T21:31:34.793Z,101483.06
2022-10-10T21:34:03.547Z,101500.03
2022-10-10T21:36:31.373Z,101496.50
2022-10-10T21:39:01.317Z,101502.50
2022-10-10T21:41:28.998Z,101503.09
2022-10-10T21:44:00.303Z,101504.81
2022-10-10T21:46:35.806Z,101514.28
2022-10-10T21:49:07.879Z,101521.47
2022-10-10T21:51:38.476Z,101517.16
2022-10-10T21:54:06.229Z,101525.63
2022-10-10T21:56:36.125Z,101529.56
2022-10-10T21:59:03.447Z,101527.47
2022-10-10T22:01:33.226Z,101534.31
2022-10-10T22:04:04.592Z,101532.97
2022-10-10T22:06:34.203Z,101538.44
2022-10-10T22:09:06.182Z,101538.94
2022-10-10T22:11:35.938Z,101538.88
2022-10-10T22:14:05.568Z,101539.06
2022-10-10T22:16:33.572Z,101548.66
2022-10-10T22:19:04.236Z,101548.59
2022-10-10T22:21:32.385Z,101559.69
2022-10-10T22:24:06.430Z,101553.28
2022-10-10T22:26:35.055Z,101561.13
2022-10-10T22:29:04.349Z,101558.28
2022-10-10T22:31:31.272Z,101554.41
2022-10-10T22:33:58.366Z,101566.28
2022-10-10T22:36:25.180Z,101566.19
2022-10-10T22:38:54.262Z,101572.16
2022-10-10T22:41:23.276Z,101576.22
2022-10-10T22:43:52.698Z,101575.25
2022-10-10T22:46:19.676Z,101569.22
2022-10-10T22:48:52.023Z,101575.53
2022-10-10T22:51:23.460Z,101574.59
2022-10-10T22:53:50.512Z,101580.03
2022-10-10T22:56:21.165Z,101584.78
2022-10-10T22:58:52.132Z,101588.09
2022-10-10T23:01:26.203Z,101590.06
2022-10-10T23:04:03.311Z,101598.44
2022-10-10T23:06:32.641Z,101595.63
2022-10-10T23:09:01.619Z,101609.84
2022-10-10T23:11:30.986Z,101602.94
2022-10-10T23:13:58.092Z,101605.56
2022-10-10T23:16:25.039Z,101618.78
2022-10-10T23:18:54.042Z,101608.13
2022-10-10T23:21:21.138Z,101612.88
2022-10-10T23:23:50.467Z,101614.59
2022-10-10T23:26:17.493Z,101617.38
2022-10-10T23:28:49.450Z,101617.38
2022-10-10T23:31:16.365Z,101621.50
2022-10-10T23:33:45.756Z,101619.53
2022-10-10T23:36:16.922Z,101625.38
2022-10-10T23:38:46.527Z,101632.66
2022-10-10T23:41:14.385Z,101631.72
2022-10-10T23:43:41.316Z,101630.72
2022-10-10T23:46:08.829Z,101642.31
2022-10-10T23:48:38.864Z,101631.94
2022-10-10T23:51:08.713Z,101639.09
2022-10-10T23:53:35.925Z,101643.72
2022-10-10T23:56:08.060Z,101637.59
2022-10-10T23:58:35.507Z,101650.75
